sensor_id;sensor_type;location;lat;lon;timestamp;P1;durP1;ratioP1;P2;durP2;ratioP2
72205;SDS011;60111;48.286;7.812;2024-01-27T00:00:45;10.90;;;6.65;;
72205;SDS011;60111;48.286;7.812;2024-01-27T00:03:17;15.03;;;7.42;;
72205;SDS011;60111;48.286;7.812;2024-01-27T00:05:50;11.53;;;7.58;;
72205;SDS011;60111;48.286;7.812;2024-01-27T00:08:23;10.32;;;6.12;;
72205;SDS011;60111;48.286;7.812;2024-01-27T00:10:56;11.12;;;6.28;;
72205;SDS011;60111;48.286;7.812;2024-01-27T00:13:29;11.83;;;6.03;;
72205;SDS011;60111;48.286;7.812;2024-01-27T00:16:01;8.48;;;5.30;;
72205;SDS011;60111;48.286;7.812;2024-01-27T00:18:38;6.62;;;4.78;;
72205;SDS011;60111;48.286;7.812;2024-01-27T00:21:10;11.03;;;6.58;;
72205;SDS011;60111;48.286;7.812;2024-01-27T00:23:43;11.35;;;6.40;;
72205;SDS011;60111;48.286;7.812;2024-01-27T00:26:16;13.15;;;6.80;;
72205;SDS011;60111;48.286;7.812;2024-01-27T00:28:48;10.85;;;5.78;;
72205;SDS011;60111;48.286;7.812;2024-01-27T00:31:21;10.75;;;5.97;;
72205;SDS011;60111;48.286;7.812;2024-01-27T00:33:54;10.32;;;6.17;;
72205;SDS011;60111;48.286;7.812;2024-01-27T00:36:27;10.53;;;6.20;;
72205;SDS011;60111;48.286;7.812;2024-01-27T00:38:59;10.40;;;6.07;;
72205;SDS011;60111;48.286;7.812;2024-01-27T00:41:32;10.85;;;6.72;;
72205;SDS011;60111;48.286;7.812;2024-01-27T00:44:05;11.20;;;6.35;;
72205;SDS011;60111;48.286;7.812;2024-01-27T00:46:37;10.18;;;6.08;;
72205;SDS011;60111;48.286;7.812;2024-01-27T00:49:10;10.45;;;6.95;;
72205;SDS011;60111;48.286;7.812;2024-01-27T00:51:42;12.85;;;6.42;;
72205;SDS011;60111;48.286;7.812;2024-01-27T00:54:15;11.12;;;6.22;;
72205;SDS011;60111;48.286;7.812;2024-01-27T00:56:48;9.55;;;6.10;;
72205;SDS011;60111;48.286;7.812;2024-01-27T00:59:20;11.12;;;6.60;;
72205;SDS011;60111;48.286;7.812;2024-01-27T01:01:53;12.00;;;6.72;;
72205;SDS011;60111;48.286;7.812;2024-01-27T01:04:26;13.40;;;6.53;;
72205;SDS011;60111;48.286;7.812;2024-01-27T01:06:59;13.50;;;7.08;;
72205;SDS011;60111;48.286;7.812;2024-01-27T01:09:31;9.85;;;6.90;;
72205;SDS011;60111;48.286;7.812;2024-01-27T01:12:04;11.33;;;6.22;;
72205;SDS011;60111;48.286;7.812;2024-01-27T01:14:37;11.83;;;6.00;;
72205;SDS011;60111;48.286;7.812;2024-01-27T01:17:10;11.00;;;5.90;;
72205;SDS011;60111;48.286;7.812;2024-01-27T01:19:44;12.20;;;5.53;;
72205;SDS011;60111;48.286;7.812;2024-01-27T01:22:17;10.53;;;5.60;;
72205;SDS011;60111;48.286;7.812;2024-01-27T01:24:50;12.67;;;6.23;;
72205;SDS011;60111;48.286;7.812;2024-01-27T01:27:22;13.10;;;6.20;;
72205;SDS011;60111;48.286;7.812;2024-01-27T01:29:55;8.30;;;4.80;;
72205;SDS011;60111;48.286;7.812;2024-01-27T01:32:28;9.45;;;5.10;;
72205;SDS011;60111;48.286;7.812;2024-01-27T01:35:00;6.92;;;4.28;;
72205;SDS011;60111;48.286;7.812;2024-01-27T01:37:33;9.18;;;5.17;;
72205;SDS011;60111;48.286;7.812;2024-01-27T01:40:06;10.93;;;4.87;;
72205;SDS011;60111;48.286;7.812;2024-01-27T01:42:39;11.10;;;4.90;;
72205;SDS011;60111;48.286;7.812;2024-01-27T01:45:11;7.40;;;4.15;;
72205;SDS011;60111;48.286;7.812;2024-01-27T01:47:44;10.03;;;5.40;;
72205;SDS011;60111;48.286;7.812;2024-01-27T01:50:18;9.48;;;5.12;;
72205;SDS011;60111;48.286;7.812;2024-01-27T01:52:50;11.45;;;5.22;;
72205;SDS011;60111;48.286;7.812;2024-01-27T01:55:24;10.93;;;5.28;;
72205;SDS011;60111;48.286;7.812;2024-01-27T01:57:57;7.72;;;5.00;;
72205;SDS011;60111;48.286;7.812;2024-01-27T02:00:29;10.23;;;5.07;;
72205;SDS011;60111;48.286;7.812;2024-01-27T02:03:02;6.90;;;4.12;;
72205;SDS011;60111;48.286;7.812;2024-01-27T02:05:35;9.30;;;5.37;;
72205;SDS011;60111;48.286;7.812;2024-01-27T02:08:08;13.00;;;5.53;;
72205;SDS011;60111;48.286;7.812;2024-01-27T02:10:40;10.23;;;4.70;;
72205;SDS011;60111;48.286;7.812;2024-01-27T02:15:51;15.15;;;7.50;;
72205;SDS011;60111;48.286;7.812;2024-01-27T02:18:23;16.63;;;7.43;;
72205;SDS011;60111;48.286;7.812;2024-01-27T02:20:56;13.40;;;6.95;;
72205;SDS011;60111;48.286;7.812;2024-01-27T02:23:28;12.70;;;6.62;;
72205;SDS011;60111;48.286;7.812;2024-01-27T02:26:01;11.45;;;6.20;;
72205;SDS011;60111;48.286;7.812;2024-01-27T02:28:34;11.12;;;6.30;;
72205;SDS011;60111;48.286;7.812;2024-01-27T02:31:06;13.35;;;7.03;;
72205;SDS011;60111;48.286;7.812;2024-01-27T02:33:39;13.65;;;6.72;;
72205;SDS011;60111;48.286;7.812;2024-01-27T02:36:11;14.40;;;6.92;;
72205;SDS011;60111;48.286;7.812;2024-01-27T02:38:44;15.43;;;7.83;;
72205;SDS011;60111;48.286;7.812;2024-01-27T02:41:17;15.35;;;6.85;;
72205;SDS011;60111;48.286;7.812;2024-01-27T02:43:50;16.27;;;7.33;;
72205;SDS011;60111;48.286;7.812;2024-01-27T02:46:22;23.95;;;9.60;;
72205;SDS011;60111;48.286;7.812;2024-01-27T02:48:55;24.30;;;10.68;;
72205;SDS011;60111;48.286;7.812;2024-01-27T02:51:27;32.65;;;13.08;;
72205;SDS011;60111;48.286;7.812;2024-01-27T02:54:00;27.17;;;11.83;;
72205;SDS011;60111;48.286;7.812;2024-01-27T02:56:33;28.93;;;11.90;;
72205;SDS011;60111;48.286;7.812;2024-01-27T02:59:05;23.90;;;10.03;;
72205;SDS011;60111;48.286;7.812;2024-01-27T03:01:38;20.75;;;9.50;;
72205;SDS011;60111;48.286;7.812;2024-01-27T03:04:10;20.05;;;9.10;;
72205;SDS011;60111;48.286;7.812;2024-01-27T03:06:43;19.82;;;8.90;;
72205;SDS011;60111;48.286;7.812;2024-01-27T03:09:15;15.50;;;7.53;;
72205;SDS011;60111;48.286;7.812;2024-01-27T03:11:48;15.63;;;7.35;;
72205;SDS011;60111;48.286;7.812;2024-01-27T03:14:21;14.40;;;7.40;;
72205;SDS011;60111;48.286;7.812;2024-01-27T03:16:54;14.63;;;7.50;;
72205;SDS011;60111;48.286;7.812;2024-01-27T03:19:26;15.43;;;7.75;;
72205;SDS011;60111;48.286;7.812;2024-01-27T03:21:59;13.30;;;6.93;;
72205;SDS011;60111;48.286;7.812;2024-01-27T03:24:31;13.10;;;6.70;;
72205;SDS011;60111;48.286;7.812;2024-01-27T03:27:04;12.97;;;7.30;;
72205;SDS011;60111;48.286;7.812;2024-01-27T03:29:36;12.87;;;7.33;;
72205;SDS011;60111;48.286;7.812;2024-01-27T03:32:09;12.68;;;7.17;;
72205;SDS011;60111;48.286;7.812;2024-01-27T03:34:48;13.85;;;6.55;;
72205;SDS011;60111;48.286;7.812;2024-01-27T03:37:16;12.37;;;6.97;;
72205;SDS011;60111;48.286;7.812;2024-01-27T03:39:48;14.40;;;6.80;;
72205;SDS011;60111;48.286;7.812;2024-01-27T03:42:21;11.05;;;6.33;;
72205;SDS011;60111;48.286;7.812;2024-01-27T03:44:55;11.22;;;6.80;;
72205;SDS011;60111;48.286;7.812;2024-01-27T03:47:27;9.98;;;6.17;;
72205;SDS011;60111;48.286;7.812;2024-01-27T03:50:00;14.15;;;7.12;;
72205;SDS011;60111;48.286;7.812;2024-01-27T03:52:32;9.83;;;6.58;;
72205;SDS011;60111;48.286;7.812;2024-01-27T03:55:06;10.43;;;6.62;;
72205;SDS011;60111;48.286;7.812;2024-01-27T03:57:39;13.20;;;8.48;;
72205;SDS011;60111;48.286;7.812;2024-01-27T04:00:12;11.28;;;6.40;;
72205;SDS011;60111;48.286;7.812;2024-01-27T04:02:45;10.95;;;6.50;;
72205;SDS011;60111;48.286;7.812;2024-01-27T04:05:18;11.78;;;5.86;;
72205;SDS011;60111;48.286;7.812;2024-01-27T04:07:51;12.75;;;5.90;;
72205;SDS011;60111;48.286;7.812;2024-01-27T04:10:23;9.00;;;6.05;;
72205;SDS011;60111;48.286;7.812;2024-01-27T04:12:56;10.20;;;5.78;;
72205;SDS011;60111;48.286;7.812;2024-01-27T04:15:28;12.63;;;6.58;;
72205;SDS011;60111;48.286;7.812;2024-01-27T04:18:01;10.93;;;6.05;;
72205;SDS011;60111;48.286;7.812;2024-01-27T04:20:34;10.08;;;6.12;;
72205;SDS011;60111;48.286;7.812;2024-01-27T04:23:06;10.20;;;5.40;;
72205;SDS011;60111;48.286;7.812;2024-01-27T04:25:39;12.82;;;6.60;;
72205;SDS011;60111;48.286;7.812;2024-01-27T04:28:12;10.93;;;6.22;;
72205;SDS011;60111;48.286;7.812;2024-01-27T04:30:44;11.48;;;6.28;;
72205;SDS011;60111;48.286;7.812;2024-01-27T04:33:17;10.72;;;6.72;;
72205;SDS011;60111;48.286;7.812;2024-01-27T04:35:49;10.50;;;6.42;;
72205;SDS011;60111;48.286;7.812;2024-01-27T04:38:22;11.90;;;6.15;;
72205;SDS011;60111;48.286;7.812;2024-01-27T04:40:55;7.85;;;5.00;;
72205;SDS011;60111;48.286;7.812;2024-01-27T04:46:19;9.85;;;5.95;;
72205;SDS011;60111;48.286;7.812;2024-01-27T04:48:52;12.98;;;5.80;;
72205;SDS011;60111;48.286;7.812;2024-01-27T04:51:26;8.28;;;5.33;;
72205;SDS011;60111;48.286;7.812;2024-01-27T04:53:59;12.18;;;5.53;;
72205;SDS011;60111;48.286;7.812;2024-01-27T04:56:31;8.45;;;4.58;;
72205;SDS011;60111;48.286;7.812;2024-01-27T04:59:04;8.13;;;4.58;;
72205;SDS011;60111;48.286;7.812;2024-01-27T05:01:36;11.30;;;5.20;;
72205;SDS011;60111;48.286;7.812;2024-01-27T05:04:09;9.58;;;5.45;;
72205;SDS011;60111;48.286;7.812;2024-01-27T05:06:44;11.22;;;5.20;;
72205;SDS011;60111;48.286;7.812;2024-01-27T05:09:18;8.18;;;4.90;;
72205;SDS011;60111;48.286;7.812;2024-01-27T05:11:50;12.03;;;5.37;;
72205;SDS011;60111;48.286;7.812;2024-01-27T05:14:24;9.95;;;5.65;;
72205;SDS011;60111;48.286;7.812;2024-01-27T05:16:56;9.35;;;5.37;;
72205;SDS011;60111;48.286;7.812;2024-01-27T05:19:29;15.08;;;4.87;;
72205;SDS011;60111;48.286;7.812;2024-01-27T05:22:02;10.63;;;4.65;;
72205;SDS011;60111;48.286;7.812;2024-01-27T05:24:34;7.35;;;4.37;;
72205;SDS011;60111;48.286;7.812;2024-01-27T05:27:07;9.70;;;4.50;;
72205;SDS011;60111;48.286;7.812;2024-01-27T05:29:39;8.03;;;4.42;;
72205;SDS011;60111;48.286;7.812;2024-01-27T05:32:12;10.32;;;5.40;;
72205;SDS011;60111;48.286;7.812;2024-01-27T05:34:44;13.38;;;5.17;;
72205;SDS011;60111;48.286;7.812;2024-01-27T05:37:18;9.88;;;4.97;;
72205;SDS011;60111;48.286;7.812;2024-01-27T05:39:50;10.77;;;4.57;;
72205;SDS011;60111;48.286;7.812;2024-01-27T05:42:23;9.60;;;5.28;;
72205;SDS011;60111;48.286;7.812;2024-01-27T05:44:56;7.95;;;4.78;;
72205;SDS011;60111;48.286;7.812;2024-01-27T05:47:29;11.05;;;4.60;;
72205;SDS011;60111;48.286;7.812;2024-01-27T05:50:01;7.15;;;3.72;;
72205;SDS011;60111;48.286;7.812;2024-01-27T05:52:35;10.17;;;3.57;;
72205;SDS011;60111;48.286;7.812;2024-01-27T05:55:08;6.03;;;3.40;;
72205;SDS011;60111;48.286;7.812;2024-01-27T05:57:42;8.83;;;3.85;;
72205;SDS011;60111;48.286;7.812;2024-01-27T06:00:14;6.17;;;3.42;;
72205;SDS011;60111;48.286;7.812;2024-01-27T06:02:48;7.08;;;3.85;;
72205;SDS011;60111;48.286;7.812;2024-01-27T06:05:21;10.23;;;4.90;;
72205;SDS011;60111;48.286;7.812;2024-01-27T06:07:53;6.12;;;3.90;;
72205;SDS011;60111;48.286;7.812;2024-01-27T06:10:26;10.20;;;4.20;;
72205;SDS011;60111;48.286;7.812;2024-01-27T06:12:58;8.95;;;4.08;;
72205;SDS011;60111;48.286;7.812;2024-01-27T06:15:31;9.93;;;4.50;;
72205;SDS011;60111;48.286;7.812;2024-01-27T06:18:04;9.00;;;5.22;;
72205;SDS011;60111;48.286;7.812;2024-01-27T06:20:37;12.37;;;5.90;;
72205;SDS011;60111;48.286;7.812;2024-01-27T06:23:11;13.10;;;5.40;;
72205;SDS011;60111;48.286;7.812;2024-01-27T06:25:44;12.43;;;5.80;;
72205;SDS011;60111;48.286;7.812;2024-01-27T06:28:16;8.35;;;5.15;;
72205;SDS011;60111;48.286;7.812;2024-01-27T06:30:49;12.13;;;5.20;;
72205;SDS011;60111;48.286;7.812;2024-01-27T06:33:22;7.70;;;4.60;;
72205;SDS011;60111;48.286;7.812;2024-01-27T06:35:54;8.55;;;4.37;;
72205;SDS011;60111;48.286;7.812;2024-01-27T06:38:27;7.95;;;4.30;;
72205;SDS011;60111;48.286;7.812;2024-01-27T06:40:59;10.10;;;5.08;;
72205;SDS011;60111;48.286;7.812;2024-01-27T06:43:32;10.05;;;5.08;;
72205;SDS011;60111;48.286;7.812;2024-01-27T06:46:05;8.53;;;4.85;;
72205;SDS011;60111;48.286;7.812;2024-01-27T06:48:37;15.48;;;9.20;;
72205;SDS011;60111;48.286;7.812;2024-01-27T06:51:10;13.88;;;8.38;;
72205;SDS011;60111;48.286;7.812;2024-01-27T06:53:43;14.55;;;8.10;;
72205;SDS011;60111;48.286;7.812;2024-01-27T06:56:16;16.73;;;7.00;;
72205;SDS011;60111;48.286;7.812;2024-01-27T06:58:48;12.40;;;6.85;;
72205;SDS011;60111;48.286;7.812;2024-01-27T07:01:21;14.10;;;7.05;;
72205;SDS011;60111;48.286;7.812;2024-01-27T07:03:54;13.55;;;6.65;;
72205;SDS011;60111;48.286;7.812;2024-01-27T07:06:26;11.03;;;6.00;;
72205;SDS011;60111;48.286;7.812;2024-01-27T07:08:59;13.95;;;6.72;;
72205;SDS011;60111;48.286;7.812;2024-01-27T07:11:32;15.13;;;7.62;;
72205;SDS011;60111;48.286;7.812;2024-01-27T07:14:05;22.93;;;9.43;;
72205;SDS011;60111;48.286;7.812;2024-01-27T07:16:37;17.95;;;7.97;;
72205;SDS011;60111;48.286;7.812;2024-01-27T07:19:10;17.07;;;7.58;;
72205;SDS011;60111;48.286;7.812;2024-01-27T07:21:44;20.17;;;9.68;;
72205;SDS011;60111;48.286;7.812;2024-01-27T07:24:17;24.43;;;9.98;;
72205;SDS011;60111;48.286;7.812;2024-01-27T07:26:49;21.85;;;10.53;;
72205;SDS011;60111;48.286;7.812;2024-01-27T07:29:22;27.85;;;11.70;;
72205;SDS011;60111;48.286;7.812;2024-01-27T07:31:54;24.75;;;13.85;;
72205;SDS011;60111;48.286;7.812;2024-01-27T07:34:27;32.63;;;17.17;;
72205;SDS011;60111;48.286;7.812;2024-01-27T07:37:00;40.05;;;14.00;;
72205;SDS011;60111;48.286;7.812;2024-01-27T07:39:32;26.20;;;11.90;;
72205;SDS011;60111;48.286;7.812;2024-01-27T07:42:05;19.73;;;11.22;;
72205;SDS011;60111;48.286;7.812;2024-01-27T07:44:40;17.15;;;9.58;;
72205;SDS011;60111;48.286;7.812;2024-01-27T07:47:13;16.37;;;9.63;;
72205;SDS011;60111;48.286;7.812;2024-01-27T07:49:46;18.67;;;10.48;;
72205;SDS011;60111;48.286;7.812;2024-01-27T07:52:19;14.77;;;10.50;;
72205;SDS011;60111;48.286;7.812;2024-01-27T07:54:52;17.27;;;10.78;;
72205;SDS011;60111;48.286;7.812;2024-01-27T07:57:25;14.87;;;11.28;;
72205;SDS011;60111;48.286;7.812;2024-01-27T08:00:01;20.52;;;11.57;;
72205;SDS011;60111;48.286;7.812;2024-01-27T08:02:34;17.87;;;10.60;;
72205;SDS011;60111;48.286;7.812;2024-01-27T08:05:07;18.05;;;11.48;;
72205;SDS011;60111;48.286;7.812;2024-01-27T08:07:39;17.82;;;11.55;;
72205;SDS011;60111;48.286;7.812;2024-01-27T08:10:12;18.10;;;11.95;;
72205;SDS011;60111;48.286;7.812;2024-01-27T08:12:45;19.45;;;10.95;;
72205;SDS011;60111;48.286;7.812;2024-01-27T08:15:19;19.35;;;10.98;;
72205;SDS011;60111;48.286;7.812;2024-01-27T08:17:51;23.25;;;13.13;;
72205;SDS011;60111;48.286;7.812;2024-01-27T08:20:24;23.95;;;13.70;;
72205;SDS011;60111;48.286;7.812;2024-01-27T08:22:56;22.30;;;13.38;;
72205;SDS011;60111;48.286;7.812;2024-01-27T08:25:29;17.37;;;11.15;;
72205;SDS011;60111;48.286;7.812;2024-01-27T08:28:02;16.20;;;10.68;;
72205;SDS011;60111;48.286;7.812;2024-01-27T08:30:35;14.73;;;10.00;;
72205;SDS011;60111;48.286;7.812;2024-01-27T08:33:08;17.25;;;9.70;;
72205;SDS011;60111;48.286;7.812;2024-01-27T08:35:41;15.30;;;9.53;;
72205;SDS011;60111;48.286;7.812;2024-01-27T08:38:14;16.40;;;10.00;;
72205;SDS011;60111;48.286;7.812;2024-01-27T08:40:47;16.65;;;9.90;;
72205;SDS011;60111;48.286;7.812;2024-01-27T08:43:32;18.40;;;10.98;;
72205;SDS011;60111;48.286;7.812;2024-01-27T08:46:03;21.73;;;12.30;;
72205;SDS011;60111;48.286;7.812;2024-01-27T08:48:36;21.17;;;12.60;;
72205;SDS011;60111;48.286;7.812;2024-01-27T08:51:09;26.45;;;13.60;;
72205;SDS011;60111;48.286;7.812;2024-01-27T08:53:44;17.32;;;11.00;;
72205;SDS011;60111;48.286;7.812;2024-01-27T08:56:22;16.07;;;10.48;;
72205;SDS011;60111;48.286;7.812;2024-01-27T08:58:55;16.05;;;10.98;;
72205;SDS011;60111;48.286;7.812;2024-01-27T09:01:27;14.40;;;9.85;;
72205;SDS011;60111;48.286;7.812;2024-01-27T09:04:00;13.78;;;10.05;;
72205;SDS011;60111;48.286;7.812;2024-01-27T09:06:32;15.65;;;10.72;;
72205;SDS011;60111;48.286;7.812;2024-01-27T09:09:05;14.75;;;10.10;;
72205;SDS011;60111;48.286;7.812;2024-01-27T09:11:38;17.62;;;12.10;;
72205;SDS011;60111;48.286;7.812;2024-01-27T09:14:11;16.90;;;10.68;;
72205;SDS011;60111;48.286;7.812;2024-01-27T09:16:44;18.32;;;11.88;;
72205;SDS011;60111;48.286;7.812;2024-01-27T09:19:17;17.40;;;11.83;;
72205;SDS011;60111;48.286;7.812;2024-01-27T09:21:50;16.82;;;10.93;;
72205;SDS011;60111;48.286;7.812;2024-01-27T09:24:23;16.97;;;11.20;;
72205;SDS011;60111;48.286;7.812;2024-01-27T09:26:55;13.90;;;10.70;;
72205;SDS011;60111;48.286;7.812;2024-01-27T09:29:29;17.47;;;11.40;;
72205;SDS011;60111;48.286;7.812;2024-01-27T09:32:01;16.87;;;10.88;;
72205;SDS011;60111;48.286;7.812;2024-01-27T09:34:34;21.00;;;10.23;;
72205;SDS011;60111;48.286;7.812;2024-01-27T09:37:07;16.97;;;10.10;;
72205;SDS011;60111;48.286;7.812;2024-01-27T09:39:39;13.65;;;10.00;;
72205;SDS011;60111;48.286;7.812;2024-01-27T09:42:13;12.87;;;8.67;;
72205;SDS011;60111;48.286;7.812;2024-01-27T09:44:48;14.25;;;9.20;;
72205;SDS011;60111;48.286;7.812;2024-01-27T09:47:22;16.57;;;8.90;;
72205;SDS011;60111;48.286;7.812;2024-01-27T09:49:55;12.15;;;8.60;;
72205;SDS011;60111;48.286;7.812;2024-01-27T09:52:28;16.35;;;8.95;;
72205;SDS011;60111;48.286;7.812;2024-01-27T09:55:00;21.40;;;9.93;;
72205;SDS011;60111;48.286;7.812;2024-01-27T09:57:33;16.60;;;9.23;;
72205;SDS011;60111;48.286;7.812;2024-01-27T10:02:43;14.18;;;7.62;;
72205;SDS011;60111;48.286;7.812;2024-01-27T10:07:51;15.13;;;8.15;;
72205;SDS011;60111;48.286;7.812;2024-01-27T10:10:23;12.93;;;6.85;;
72205;SDS011;60111;48.286;7.812;2024-01-27T10:12:56;10.23;;;6.45;;
72205;SDS011;60111;48.286;7.812;2024-01-27T10:15:32;8.35;;;5.45;;
72205;SDS011;60111;48.286;7.812;2024-01-27T10:18:10;10.25;;;4.90;;
72205;SDS011;60111;48.286;7.812;2024-01-27T10:20:41;11.37;;;4.60;;
72205;SDS011;60111;48.286;7.812;2024-01-27T10:23:14;10.35;;;4.85;;
72205;SDS011;60111;48.286;7.812;2024-01-27T10:25:47;7.58;;;4.35;;
72205;SDS011;60111;48.286;7.812;2024-01-27T10:28:20;6.87;;;4.43;;
72205;SDS011;60111;48.286;7.812;2024-01-27T10:31:07;10.53;;;4.40;;
72205;SDS011;60111;48.286;7.812;2024-01-27T10:33:50;6.90;;;4.00;;
72205;SDS011;60111;48.286;7.812;2024-01-27T10:36:26;9.13;;;3.77;;
72205;SDS011;60111;48.286;7.812;2024-01-27T10:39:00;6.50;;;3.58;;
72205;SDS011;60111;48.286;7.812;2024-01-27T10:41:33;8.30;;;3.87;;
72205;SDS011;60111;48.286;7.812;2024-01-27T10:44:06;8.03;;;3.87;;
72205;SDS011;60111;48.286;7.812;2024-01-27T10:49:20;8.25;;;4.50;;
72205;SDS011;60111;48.286;7.812;2024-01-27T10:51:55;6.37;;;3.50;;
72205;SDS011;60111;48.286;7.812;2024-01-27T10:57:02;4.83;;;3.90;;
72205;SDS011;60111;48.286;7.812;2024-01-27T10:59:35;6.33;;;3.75;;
72205;SDS011;60111;48.286;7.812;2024-01-27T11:02:09;7.23;;;4.90;;
72205;SDS011;60111;48.286;7.812;2024-01-27T11:04:45;10.58;;;5.53;;
72205;SDS011;60111;48.286;7.812;2024-01-27T11:07:20;8.53;;;5.40;;
72205;SDS011;60111;48.286;7.812;2024-01-27T11:09:53;5.72;;;3.30;;
72205;SDS011;60111;48.286;7.812;2024-01-27T11:12:27;5.00;;;3.20;;
72205;SDS011;60111;48.286;7.812;2024-01-27T11:15:00;4.37;;;3.00;;
72205;SDS011;60111;48.286;7.812;2024-01-27T11:17:42;4.90;;;3.03;;
72205;SDS011;60111;48.286;7.812;2024-01-27T11:20:16;6.00;;;3.85;;
72205;SDS011;60111;48.286;7.812;2024-01-27T11:22:48;7.15;;;3.62;;
72205;SDS011;60111;48.286;7.812;2024-01-27T11:25:23;6.10;;;4.20;;
72205;SDS011;60111;48.286;7.812;2024-01-27T11:27:55;7.30;;;4.15;;
72205;SDS011;60111;48.286;7.812;2024-01-27T11:30:31;6.75;;;4.12;;
72205;SDS011;60111;48.286;7.812;2024-01-27T11:33:09;7.60;;;3.95;;
72205;SDS011;60111;48.286;7.812;2024-01-27T11:35:41;8.17;;;4.27;;
72205;SDS011;60111;48.286;7.812;2024-01-27T11:38:14;7.33;;;4.87;;
72205;SDS011;60111;48.286;7.812;2024-01-27T11:40:47;9.70;;;5.40;;
72205;SDS011;60111;48.286;7.812;2024-01-27T11:43:20;11.30;;;6.77;;
72205;SDS011;60111;48.286;7.812;2024-01-27T11:45:57;6.85;;;4.45;;
72205;SDS011;60111;48.286;7.812;2024-01-27T11:48:31;8.03;;;4.72;;
72205;SDS011;60111;48.286;7.812;2024-01-27T11:51:10;10.40;;;5.27;;
72205;SDS011;60111;48.286;7.812;2024-01-27T11:53:44;8.73;;;5.42;;
72205;SDS011;60111;48.286;7.812;2024-01-27T11:56:17;9.65;;;5.90;;
72205;SDS011;60111;48.286;7.812;2024-01-27T11:58:52;9.33;;;5.15;;
72205;SDS011;60111;48.286;7.812;2024-01-27T12:01:25;9.60;;;6.17;;
72205;SDS011;60111;48.286;7.812;2024-01-27T12:03:58;7.05;;;5.65;;
72205;SDS011;60111;48.286;7.812;2024-01-27T12:06:30;8.25;;;5.22;;
72205;SDS011;60111;48.286;7.812;2024-01-27T12:09:03;9.23;;;5.07;;
72205;SDS011;60111;48.286;7.812;2024-01-27T12:14:11;9.53;;;5.25;;
72205;SDS011;60111;48.286;7.812;2024-01-27T12:16:44;5.50;;;4.60;;
72205;SDS011;60111;48.286;7.812;2024-01-27T12:19:18;6.97;;;3.95;;
72205;SDS011;60111;48.286;7.812;2024-01-27T12:21:51;10.35;;;5.30;;
72205;SDS011;60111;48.286;7.812;2024-01-27T12:24:23;8.50;;;4.00;;
72205;SDS011;60111;48.286;7.812;2024-01-27T12:26:56;8.50;;;4.42;;
72205;SDS011;60111;48.286;7.812;2024-01-27T12:29:29;9.15;;;4.33;;
72205;SDS011;60111;48.286;7.812;2024-01-27T12:32:01;14.73;;;5.30;;
72205;SDS011;60111;48.286;7.812;2024-01-27T12:34:41;9.00;;;4.70;;
72205;SDS011;60111;48.286;7.812;2024-01-27T12:37:14;7.70;;;4.50;;
72205;SDS011;60111;48.286;7.812;2024-01-27T12:39:47;7.67;;;4.35;;
72205;SDS011;60111;48.286;7.812;2024-01-27T12:42:22;7.80;;;4.35;;
72205;SDS011;60111;48.286;7.812;2024-01-27T12:44:55;8.78;;;4.80;;
72205;SDS011;60111;48.286;7.812;2024-01-27T12:47:27;7.50;;;5.15;;
72205;SDS011;60111;48.286;7.812;2024-01-27T12:50:00;9.83;;;5.28;;
72205;SDS011;60111;48.286;7.812;2024-01-27T12:52:33;10.78;;;6.45;;
72205;SDS011;60111;48.286;7.812;2024-01-27T12:55:06;10.58;;;5.50;;
72205;SDS011;60111;48.286;7.812;2024-01-27T12:57:39;11.17;;;5.97;;
72205;SDS011;60111;48.286;7.812;2024-01-27T13:00:12;7.83;;;5.35;;
72205;SDS011;60111;48.286;7.812;2024-01-27T13:02:45;8.60;;;5.40;;
72205;SDS011;60111;48.286;7.812;2024-01-27T13:05:18;8.93;;;5.75;;
72205;SDS011;60111;48.286;7.812;2024-01-27T13:07:51;7.42;;;4.50;;
72205;SDS011;60111;48.286;7.812;2024-01-27T13:10:24;7.43;;;4.50;;
72205;SDS011;60111;48.286;7.812;2024-01-27T13:12:56;7.83;;;4.35;;
72205;SDS011;60111;48.286;7.812;2024-01-27T13:15:30;7.93;;;4.60;;
72205;SDS011;60111;48.286;7.812;2024-01-27T13:18:02;5.93;;;3.67;;
72205;SDS011;60111;48.286;7.812;2024-01-27T13:20:36;7.57;;;4.37;;
72205;SDS011;60111;48.286;7.812;2024-01-27T13:23:09;8.85;;;4.58;;
72205;SDS011;60111;48.286;7.812;2024-01-27T13:25:41;10.75;;;4.80;;
72205;SDS011;60111;48.286;7.812;2024-01-27T13:28:14;7.65;;;4.47;;
72205;SDS011;60111;48.286;7.812;2024-01-27T13:30:47;8.45;;;4.92;;
72205;SDS011;60111;48.286;7.812;2024-01-27T13:33:20;9.45;;;4.35;;
72205;SDS011;60111;48.286;7.812;2024-01-27T13:35:52;10.80;;;4.50;;
72205;SDS011;60111;48.286;7.812;2024-01-27T13:38:25;10.63;;;4.80;;
72205;SDS011;60111;48.286;7.812;2024-01-27T13:40:58;7.62;;;3.80;;
72205;SDS011;60111;48.286;7.812;2024-01-27T13:43:30;9.55;;;3.83;;
72205;SDS011;60111;48.286;7.812;2024-01-27T13:46:03;11.15;;;3.90;;
72205;SDS011;60111;48.286;7.812;2024-01-27T13:48:37;8.95;;;3.77;;
72205;SDS011;60111;48.286;7.812;2024-01-27T13:51:10;9.68;;;3.98;;
72205;SDS011;60111;48.286;7.812;2024-01-27T13:53:42;7.23;;;3.57;;
72205;SDS011;60111;48.286;7.812;2024-01-27T13:56:15;12.37;;;4.00;;
72205;SDS011;60111;48.286;7.812;2024-01-27T13:58:48;8.50;;;3.75;;
72205;SDS011;60111;48.286;7.812;2024-01-27T14:01:21;8.60;;;3.67;;
72205;SDS011;60111;48.286;7.812;2024-01-27T14:03:53;9.00;;;4.08;;
72205;SDS011;60111;48.286;7.812;2024-01-27T14:06:26;11.15;;;4.97;;
72205;SDS011;60111;48.286;7.812;2024-01-27T14:08:58;11.28;;;5.10;;
72205;SDS011;60111;48.286;7.812;2024-01-27T14:11:31;13.00;;;4.60;;
72205;SDS011;60111;48.286;7.812;2024-01-27T14:14:04;8.50;;;3.92;;
72205;SDS011;60111;48.286;7.812;2024-01-27T14:16:36;12.30;;;4.93;;
72205;SDS011;60111;48.286;7.812;2024-01-27T14:19:09;11.65;;;5.05;;
72205;SDS011;60111;48.286;7.812;2024-01-27T14:21:42;12.78;;;5.37;;
72205;SDS011;60111;48.286;7.812;2024-01-27T14:24:14;12.20;;;5.12;;
72205;SDS011;60111;48.286;7.812;2024-01-27T14:26:47;8.75;;;4.75;;
72205;SDS011;60111;48.286;7.812;2024-01-27T14:29:20;12.15;;;5.55;;
72205;SDS011;60111;48.286;7.812;2024-01-27T14:31:53;10.32;;;5.53;;
72205;SDS011;60111;48.286;7.812;2024-01-27T14:34:26;14.25;;;5.12;;
72205;SDS011;60111;48.286;7.812;2024-01-27T14:36:58;11.78;;;4.72;;
72205;SDS011;60111;48.286;7.812;2024-01-27T14:39:33;10.63;;;4.65;;
72205;SDS011;60111;48.286;7.812;2024-01-27T14:42:06;10.28;;;5.40;;
72205;SDS011;60111;48.286;7.812;2024-01-27T14:44:39;11.88;;;5.55;;
72205;SDS011;60111;48.286;7.812;2024-01-27T14:47:13;9.93;;;5.33;;
72205;SDS011;60111;48.286;7.812;2024-01-27T14:49:45;13.88;;;6.20;;
72205;SDS011;60111;48.286;7.812;2024-01-27T14:52:18;11.70;;;5.50;;
72205;SDS011;60111;48.286;7.812;2024-01-27T14:54:53;12.70;;;5.97;;
72205;SDS011;60111;48.286;7.812;2024-01-27T14:57:25;11.35;;;6.05;;
72205;SDS011;60111;48.286;7.812;2024-01-27T14:59:58;18.98;;;6.97;;
72205;SDS011;60111;48.286;7.812;2024-01-27T15:02:31;12.78;;;6.45;;
72205;SDS011;60111;48.286;7.812;2024-01-27T15:05:03;10.00;;;6.58;;
72205;SDS011;60111;48.286;7.812;2024-01-27T15:07:57;10.05;;;5.50;;
72205;SDS011;60111;48.286;7.812;2024-01-27T15:10:29;10.68;;;5.87;;
72205;SDS011;60111;48.286;7.812;2024-01-27T15:13:02;11.73;;;5.78;;
72205;SDS011;60111;48.286;7.812;2024-01-27T15:15:35;10.13;;;5.42;;
72205;SDS011;60111;48.286;7.812;2024-01-27T15:18:08;8.30;;;5.30;;
72205;SDS011;60111;48.286;7.812;2024-01-27T15:20:41;10.60;;;5.33;;
72205;SDS011;60111;48.286;7.812;2024-01-27T15:23:13;14.18;;;5.78;;
72205;SDS011;60111;48.286;7.812;2024-01-27T15:25:46;10.10;;;5.60;;
72205;SDS011;60111;48.286;7.812;2024-01-27T15:28:18;10.28;;;5.42;;